sensor_id;sensor_type;location;lat;lon;timestamp;P1;durP1;ratioP1;P2;durP2;ratioP2
2434;SDS011;1228;51.022;6.764;2023-09-19T00:02:17;9.63;;;4.00;;
2434;SDS011;1228;51.022;6.764;2023-09-19T00:04:43;4.53;;;3.80;;
2434;SDS011;1228;51.022;6.764;2023-09-19T00:07:09;10.17;;;3.77;;
2434;SDS011;1228;51.022;6.764;2023-09-19T00:09:35;8.30;;;4.60;;
2434;SDS011;1228;51.022;6.764;2023-09-19T00:12:02;6.13;;;3.77;;
2434;SDS011;1228;51.022;6.764;2023-09-19T00:14:32;10.80;;;4.63;;
2434;SDS011;1228;51.022;6.764;2023-09-19T00:17:02;5.97;;;3.90;;
2434;SDS011;1228;51.022;6.764;2023-09-19T00:19:30;6.73;;;4.27;;
2434;SDS011;1228;51.022;6.764;2023-09-19T00:21:57;9.83;;;3.93;;
2434;SDS011;1228;51.022;6.764;2023-09-19T00:24:23;5.60;;;4.20;;
2434;SDS011;1228;51.022;6.764;2023-09-19T00:26:49;9.07;;;3.73;;
2434;SDS011;1228;51.022;6.764;2023-09-19T00:29:14;10.30;;;4.20;;
2434;SDS011;1228;51.022;6.764;2023-09-19T00:31:44;8.30;;;4.53;;
2434;SDS011;1228;51.022;6.764;2023-09-19T00:34:09;5.20;;;4.53;;
2434;SDS011;1228;51.022;6.764;2023-09-19T00:36:36;7.30;;;4.03;;
2434;SDS011;1228;51.022;6.764;2023-09-19T00:39:07;7.27;;;4.20;;
2434;SDS011;1228;51.022;6.764;2023-09-19T00:41:33;7.27;;;4.10;;
2434;SDS011;1228;51.022;6.764;2023-09-19T00:44:01;5.03;;;3.63;;
2434;SDS011;1228;51.022;6.764;2023-09-19T00:46:28;8.77;;;3.37;;
2434;SDS011;1228;51.022;6.764;2023-09-19T00:48:54;4.20;;;3.80;;
2434;SDS011;1228;51.022;6.764;2023-09-19T00:51:21;6.40;;;3.23;;
2434;SDS011;1228;51.022;6.764;2023-09-19T00:53:48;7.90;;;3.60;;
2434;SDS011;1228;51.022;6.764;2023-09-19T00:56:14;7.07;;;3.70;;
2434;SDS011;1228;51.022;6.764;2023-09-19T00:58:43;4.70;;;3.63;;
2434;SDS011;1228;51.022;6.764;2023-09-19T01:01:09;8.33;;;3.73;;
2434;SDS011;1228;51.022;6.764;2023-09-19T01:03:36;11.20;;;4.33;;
2434;SDS011;1228;51.022;6.764;2023-09-19T01:06:02;7.63;;;3.43;;
2434;SDS011;1228;51.022;6.764;2023-09-19T01:08:28;7.47;;;4.07;;
2434;SDS011;1228;51.022;6.764;2023-09-19T01:11:30;6.97;;;3.53;;
2434;SDS011;1228;51.022;6.764;2023-09-19T01:13:57;7.10;;;4.17;;
2434;SDS011;1228;51.022;6.764;2023-09-19T01:17:00;6.77;;;3.63;;
2434;SDS011;1228;51.022;6.764;2023-09-19T01:28:13;6.77;;;4.13;;
2434;SDS011;1228;51.022;6.764;2023-09-19T01:30:50;9.97;;;3.70;;
2434;SDS011;1228;51.022;6.764;2023-09-19T01:33:22;6.63;;;3.80;;
2434;SDS011;1228;51.022;6.764;2023-09-19T01:35:48;9.30;;;3.57;;
2434;SDS011;1228;51.022;6.764;2023-09-19T01:38:15;7.80;;;4.20;;
2434;SDS011;1228;51.022;6.764;2023-09-19T01:40:41;6.83;;;4.27;;
2434;SDS011;1228;51.022;6.764;2023-09-19T01:43:11;6.33;;;3.70;;
2434;SDS011;1228;51.022;6.764;2023-09-19T01:46:08;7.17;;;3.90;;
2434;SDS011;1228;51.022;6.764;2023-09-19T01:51:53;6.47;;;3.23;;
2434;SDS011;1228;51.022;6.764;2023-09-19T01:54:16;7.13;;;3.53;;
2434;SDS011;1228;51.022;6.764;2023-09-19T01:59:45;10.30;;;3.70;;
2434;SDS011;1228;51.022;6.764;2023-09-19T02:02:17;6.43;;;3.47;;
2434;SDS011;1228;51.022;6.764;2023-09-19T02:04:47;8.73;;;3.83;;
2434;SDS011;1228;51.022;6.764;2023-09-19T02:07:14;7.43;;;3.87;;
2434;SDS011;1228;51.022;6.764;2023-09-19T02:09:40;8.13;;;3.97;;
2434;SDS011;1228;51.022;6.764;2023-09-19T02:12:08;6.97;;;3.80;;
2434;SDS011;1228;51.022;6.764;2023-09-19T02:14:34;5.87;;;3.27;;
2434;SDS011;1228;51.022;6.764;2023-09-19T02:17:01;6.67;;;3.67;;
2434;SDS011;1228;51.022;6.764;2023-09-19T02:19:30;9.97;;;3.87;;
2434;SDS011;1228;51.022;6.764;2023-09-19T02:21:57;5.40;;;3.60;;
2434;SDS011;1228;51.022;6.764;2023-09-19T02:24:23;5.77;;;3.60;;
2434;SDS011;1228;51.022;6.764;2023-09-19T02:26:49;7.43;;;3.70;;
2434;SDS011;1228;51.022;6.764;2023-09-19T02:29:14;6.23;;;3.70;;
2434;SDS011;1228;51.022;6.764;2023-09-19T02:31:40;8.17;;;4.10;;
2434;SDS011;1228;51.022;6.764;2023-09-19T02:34:06;7.53;;;3.80;;
2434;SDS011;1228;51.022;6.764;2023-09-19T02:36:32;8.93;;;4.70;;
2434;SDS011;1228;51.022;6.764;2023-09-19T02:38:57;3.83;;;3.20;;
2434;SDS011;1228;51.022;6.764;2023-09-19T02:41:23;8.83;;;3.70;;
2434;SDS011;1228;51.022;6.764;2023-09-19T02:43:48;8.47;;;3.30;;
2434;SDS011;1228;51.022;6.764;2023-09-19T02:46:14;8.10;;;3.73;;
2434;SDS011;1228;51.022;6.764;2023-09-19T02:48:41;6.00;;;3.40;;
2434;SDS011;1228;51.022;6.764;2023-09-19T02:51:07;10.27;;;3.90;;
2434;SDS011;1228;51.022;6.764;2023-09-19T02:53:33;7.87;;;3.83;;
2434;SDS011;1228;51.022;6.764;2023-09-19T02:55:58;7.90;;;3.33;;
2434;SDS011;1228;51.022;6.764;2023-09-19T02:58:24;6.87;;;4.33;;
2434;SDS011;1228;51.022;6.764;2023-09-19T03:00:50;6.57;;;3.83;;
2434;SDS011;1228;51.022;6.764;2023-09-19T03:03:16;7.27;;;3.40;;
2434;SDS011;1228;51.022;6.764;2023-09-19T03:05:42;10.53;;;4.10;;
2434;SDS011;1228;51.022;6.764;2023-09-19T03:08:12;6.17;;;3.50;;
2434;SDS011;1228;51.022;6.764;2023-09-19T03:10:41;4.97;;;3.70;;
2434;SDS011;1228;51.022;6.764;2023-09-19T03:13:07;8.60;;;3.87;;
2434;SDS011;1228;51.022;6.764;2023-09-19T03:15:35;9.23;;;4.37;;
2434;SDS011;1228;51.022;6.764;2023-09-19T03:18:03;8.50;;;4.07;;
2434;SDS011;1228;51.022;6.764;2023-09-19T03:20:29;15.10;;;4.60;;
2434;SDS011;1228;51.022;6.764;2023-09-19T03:22:55;6.53;;;4.40;;
2434;SDS011;1228;51.022;6.764;2023-09-19T03:25:22;5.63;;;4.30;;
2434;SDS011;1228;51.022;6.764;2023-09-19T03:27:48;12.20;;;4.47;;
2434;SDS011;1228;51.022;6.764;2023-09-19T03:30:13;8.87;;;4.53;;
2434;SDS011;1228;51.022;6.764;2023-09-19T03:32:46;7.17;;;4.10;;
2434;SDS011;1228;51.022;6.764;2023-09-19T03:35:14;7.33;;;3.73;;
2434;SDS011;1228;51.022;6.764;2023-09-19T03:37:41;14.80;;;5.23;;
2434;SDS011;1228;51.022;6.764;2023-09-19T03:40:08;9.47;;;4.30;;
2434;SDS011;1228;51.022;6.764;2023-09-19T03:42:37;6.67;;;4.37;;
2434;SDS011;1228;51.022;6.764;2023-09-19T03:45:07;10.77;;;4.50;;
2434;SDS011;1228;51.022;6.764;2023-09-19T03:47:37;6.13;;;3.90;;
2434;SDS011;1228;51.022;6.764;2023-09-19T03:50:03;16.27;;;4.70;;
2434;SDS011;1228;51.022;6.764;2023-09-19T03:52:30;9.67;;;4.30;;
2434;SDS011;1228;51.022;6.764;2023-09-19T03:54:56;10.00;;;4.03;;
2434;SDS011;1228;51.022;6.764;2023-09-19T03:57:21;8.43;;;4.30;;
2434;SDS011;1228;51.022;6.764;2023-09-19T03:59:47;5.23;;;3.47;;
2434;SDS011;1228;51.022;6.764;2023-09-19T04:02:13;6.93;;;3.53;;
2434;SDS011;1228;51.022;6.764;2023-09-19T04:04:47;13.40;;;4.40;;
2434;SDS011;1228;51.022;6.764;2023-09-19T04:07:13;15.60;;;5.10;;
2434;SDS011;1228;51.022;6.764;2023-09-19T04:09:39;7.77;;;3.90;;
2434;SDS011;1228;51.022;6.764;2023-09-19T04:12:05;8.43;;;4.20;;
2434;SDS011;1228;51.022;6.764;2023-09-19T04:14:30;8.53;;;3.90;;
2434;SDS011;1228;51.022;6.764;2023-09-19T04:16:56;15.27;;;4.30;;
2434;SDS011;1228;51.022;6.764;2023-09-19T04:19:22;10.53;;;4.20;;
2434;SDS011;1228;51.022;6.764;2023-09-19T04:21:47;8.77;;;4.10;;
2434;SDS011;1228;51.022;6.764;2023-09-19T04:24:13;9.40;;;4.70;;
2434;SDS011;1228;51.022;6.764;2023-09-19T04:26:39;11.20;;;4.77;;
2434;SDS011;1228;51.022;6.764;2023-09-19T04:29:04;9.53;;;4.37;;
2434;SDS011;1228;51.022;6.764;2023-09-19T04:31:31;6.90;;;4.27;;
2434;SDS011;1228;51.022;6.764;2023-09-19T04:33:56;6.37;;;4.13;;
2434;SDS011;1228;51.022;6.764;2023-09-19T04:36:24;7.33;;;4.20;;
2434;SDS011;1228;51.022;6.764;2023-09-19T04:38:49;10.00;;;4.17;;
2434;SDS011;1228;51.022;6.764;2023-09-19T04:41:15;8.70;;;4.20;;
2434;SDS011;1228;51.022;6.764;2023-09-19T04:43:41;10.37;;;4.10;;
2434;SDS011;1228;51.022;6.764;2023-09-19T04:46:06;8.90;;;4.13;;
2434;SDS011;1228;51.022;6.764;2023-09-19T04:48:32;12.33;;;4.90;;
2434;SDS011;1228;51.022;6.764;2023-09-19T04:50:59;7.83;;;4.00;;
2434;SDS011;1228;51.022;6.764;2023-09-19T04:53:25;11.93;;;4.10;;
2434;SDS011;1228;51.022;6.764;2023-09-19T04:55:52;9.83;;;3.97;;
2434;SDS011;1228;51.022;6.764;2023-09-19T04:58:21;10.67;;;3.93;;
2434;SDS011;1228;51.022;6.764;2023-09-19T05:00:47;4.67;;;3.70;;
2434;SDS011;1228;51.022;6.764;2023-09-19T05:03:12;9.20;;;4.17;;
2434;SDS011;1228;51.022;6.764;2023-09-19T05:05:38;7.60;;;4.00;;
2434;SDS011;1228;51.022;6.764;2023-09-19T05:08:06;7.17;;;4.23;;
2434;SDS011;1228;51.022;6.764;2023-09-19T05:10:34;11.27;;;4.60;;
2434;SDS011;1228;51.022;6.764;2023-09-19T05:13:02;11.00;;;3.90;;
2434;SDS011;1228;51.022;6.764;2023-09-19T05:15:29;7.53;;;4.03;;
2434;SDS011;1228;51.022;6.764;2023-09-19T05:17:55;6.27;;;3.70;;
2434;SDS011;1228;51.022;6.764;2023-09-19T05:20:21;8.73;;;4.40;;
2434;SDS011;1228;51.022;6.764;2023-09-19T05:22:57;9.03;;;4.47;;
2434;SDS011;1228;51.022;6.764;2023-09-19T05:25:36;7.43;;;5.17;;
2434;SDS011;1228;51.022;6.764;2023-09-19T05:28:03;5.30;;;3.90;;
2434;SDS011;1228;51.022;6.764;2023-09-19T05:30:30;10.43;;;4.30;;
2434;SDS011;1228;51.022;6.764;2023-09-19T05:32:57;12.90;;;4.17;;
2434;SDS011;1228;51.022;6.764;2023-09-19T05:35:23;12.77;;;4.70;;
2434;SDS011;1228;51.022;6.764;2023-09-19T05:37:52;10.53;;;4.03;;
2434;SDS011;1228;51.022;6.764;2023-09-19T05:40:20;12.33;;;3.93;;
2434;SDS011;1228;51.022;6.764;2023-09-19T05:42:46;6.90;;;3.87;;
2434;SDS011;1228;51.022;6.764;2023-09-19T05:45:12;9.27;;;4.60;;
2434;SDS011;1228;51.022;6.764;2023-09-19T05:47:42;10.93;;;4.37;;
2434;SDS011;1228;51.022;6.764;2023-09-19T05:50:10;8.40;;;4.47;;
2434;SDS011;1228;51.022;6.764;2023-09-19T05:52:37;11.83;;;4.70;;
2434;SDS011;1228;51.022;6.764;2023-09-19T05:55:07;9.00;;;4.07;;
2434;SDS011;1228;51.022;6.764;2023-09-19T05:57:34;10.50;;;4.53;;
2434;SDS011;1228;51.022;6.764;2023-09-19T05:59:59;9.83;;;4.33;;
2434;SDS011;1228;51.022;6.764;2023-09-19T06:02:25;8.43;;;4.60;;
2434;SDS011;1228;51.022;6.764;2023-09-19T06:04:55;9.00;;;4.43;;
2434;SDS011;1228;51.022;6.764;2023-09-19T06:07:21;9.23;;;4.50;;
2434;SDS011;1228;51.022;6.764;2023-09-19T06:09:51;8.67;;;3.60;;
2434;SDS011;1228;51.022;6.764;2023-09-19T06:12:18;9.30;;;4.07;;
2434;SDS011;1228;51.022;6.764;2023-09-19T06:14:44;6.63;;;3.80;;
2434;SDS011;1228;51.022;6.764;2023-09-19T06:17:09;12.00;;;3.90;;
2434;SDS011;1228;51.022;6.764;2023-09-19T06:19:35;9.93;;;4.20;;
2434;SDS011;1228;51.022;6.764;2023-09-19T06:22:01;11.63;;;4.77;;
2434;SDS011;1228;51.022;6.764;2023-09-19T06:24:27;9.43;;;4.30;;
2434;SDS011;1228;51.022;6.764;2023-09-19T06:26:53;7.57;;;4.03;;
2434;SDS011;1228;51.022;6.764;2023-09-19T06:29:19;11.17;;;4.27;;
2434;SDS011;1228;51.022;6.764;2023-09-19T06:31:48;10.03;;;4.03;;
2434;SDS011;1228;51.022;6.764;2023-09-19T06:34:13;12.83;;;4.23;;
2434;SDS011;1228;51.022;6.764;2023-09-19T06:36:40;11.47;;;3.83;;
2434;SDS011;1228;51.022;6.764;2023-09-19T06:39:06;9.30;;;3.77;;
2434;SDS011;1228;51.022;6.764;2023-09-19T06:41:35;9.83;;;4.30;;
2434;SDS011;1228;51.022;6.764;2023-09-19T06:44:03;10.87;;;3.77;;
2434;SDS011;1228;51.022;6.764;2023-09-19T06:46:30;9.17;;;3.83;;
2434;SDS011;1228;51.022;6.764;2023-09-19T06:48:59;12.73;;;4.93;;
2434;SDS011;1228;51.022;6.764;2023-09-19T06:51:25;11.33;;;3.57;;
2434;SDS011;1228;51.022;6.764;2023-09-19T06:53:51;5.57;;;3.77;;
2434;SDS011;1228;51.022;6.764;2023-09-19T06:56:19;8.00;;;4.47;;
2434;SDS011;1228;51.022;6.764;2023-09-19T06:58:49;10.03;;;4.37;;
2434;SDS011;1228;51.022;6.764;2023-09-19T07:01:15;12.43;;;3.83;;
2434;SDS011;1228;51.022;6.764;2023-09-19T07:03:41;13.67;;;4.00;;
2434;SDS011;1228;51.022;6.764;2023-09-19T07:06:06;9.37;;;4.40;;
2434;SDS011;1228;51.022;6.764;2023-09-19T07:08:33;7.53;;;3.83;;
2434;SDS011;1228;51.022;6.764;2023-09-19T07:10:59;9.20;;;3.83;;
2434;SDS011;1228;51.022;6.764;2023-09-19T07:13:25;9.97;;;3.93;;
2434;SDS011;1228;51.022;6.764;2023-09-19T07:15:50;8.30;;;3.43;;
2434;SDS011;1228;51.022;6.764;2023-09-19T07:18:16;9.53;;;4.10;;
2434;SDS011;1228;51.022;6.764;2023-09-19T07:20:43;6.60;;;3.30;;
2434;SDS011;1228;51.022;6.764;2023-09-19T07:23:16;11.67;;;4.07;;
2434;SDS011;1228;51.022;6.764;2023-09-19T07:25:46;9.77;;;4.50;;
2434;SDS011;1228;51.022;6.764;2023-09-19T07:28:13;10.13;;;4.03;;
2434;SDS011;1228;51.022;6.764;2023-09-19T07:30:39;11.37;;;4.30;;
2434;SDS011;1228;51.022;6.764;2023-09-19T07:33:06;6.37;;;3.40;;
2434;SDS011;1228;51.022;6.764;2023-09-19T07:35:32;7.13;;;3.83;;
2434;SDS011;1228;51.022;6.764;2023-09-19T07:37:58;5.80;;;3.27;;
2434;SDS011;1228;51.022;6.764;2023-09-19T07:40:26;8.73;;;4.73;;
2434;SDS011;1228;51.022;6.764;2023-09-19T07:42:54;8.23;;;3.53;;
2434;SDS011;1228;51.022;6.764;2023-09-19T07:45:26;7.13;;;3.53;;
2434;SDS011;1228;51.022;6.764;2023-09-19T07:47:55;7.67;;;3.30;;
2434;SDS011;1228;51.022;6.764;2023-09-19T07:50:21;8.30;;;4.07;;
2434;SDS011;1228;51.022;6.764;2023-09-19T07:52:47;13.23;;;3.83;;
2434;SDS011;1228;51.022;6.764;2023-09-19T07:55:15;10.27;;;3.80;;
2434;SDS011;1228;51.022;6.764;2023-09-19T07:57:42;6.50;;;3.40;;
2434;SDS011;1228;51.022;6.764;2023-09-19T08:00:09;5.93;;;3.20;;
2434;SDS011;1228;51.022;6.764;2023-09-19T08:02:35;8.13;;;3.60;;
2434;SDS011;1228;51.022;6.764;2023-09-19T08:05:03;6.83;;;3.60;;
2434;SDS011;1228;51.022;6.764;2023-09-19T08:07:31;9.60;;;4.17;;
2434;SDS011;1228;51.022;6.764;2023-09-19T08:09:57;6.17;;;3.50;;
2434;SDS011;1228;51.022;6.764;2023-09-19T08:12:23;11.83;;;3.70;;
2434;SDS011;1228;51.022;6.764;2023-09-19T08:14:49;7.77;;;3.27;;
2434;SDS011;1228;51.022;6.764;2023-09-19T08:17:15;6.17;;;2.73;;
2434;SDS011;1228;51.022;6.764;2023-09-19T08:19:41;8.18;;;3.72;;
2434;SDS011;1228;51.022;6.764;2023-09-19T08:22:10;6.80;;;3.43;;
2434;SDS011;1228;51.022;6.764;2023-09-19T08:24:36;7.37;;;4.37;;
2434;SDS011;1228;51.022;6.764;2023-09-19T08:27:03;5.72;;;3.30;;
2434;SDS011;1228;51.022;6.764;2023-09-19T08:29:30;8.07;;;4.07;;
2434;SDS011;1228;51.022;6.764;2023-09-19T08:31:56;12.00;;;4.07;;
2434;SDS011;1228;51.022;6.764;2023-09-19T08:34:25;11.27;;;3.75;;
2434;SDS011;1228;51.022;6.764;2023-09-19T08:36:52;6.70;;;3.22;;
2434;SDS011;1228;51.022;6.764;2023-09-19T08:39:21;7.88;;;3.28;;
2434;SDS011;1228;51.022;6.764;2023-09-19T08:41:47;8.38;;;3.33;;
2434;SDS011;1228;51.022;6.764;2023-09-19T08:44:13;6.25;;;3.63;;
2434;SDS011;1228;51.022;6.764;2023-09-19T08:46:40;6.68;;;3.47;;
2434;SDS011;1228;51.022;6.764;2023-09-19T08:49:19;7.25;;;3.50;;
2434;SDS011;1228;51.022;6.764;2023-09-19T08:52:00;8.30;;;4.28;;
2434;SDS011;1228;51.022;6.764;2023-09-19T08:54:36;6.88;;;3.83;;
2434;SDS011;1228;51.022;6.764;2023-09-19T08:57:06;6.47;;;3.53;;
2434;SDS011;1228;51.022;6.764;2023-09-19T08:59:39;5.93;;;4.05;;
2434;SDS011;1228;51.022;6.764;2023-09-19T09:02:15;12.43;;;4.43;;
2434;SDS011;1228;51.022;6.764;2023-09-19T09:04:45;7.38;;;4.03;;
2434;SDS011;1228;51.022;6.764;2023-09-19T09:07:13;7.75;;;3.80;;
2434;SDS011;1228;51.022;6.764;2023-09-19T09:09:41;6.15;;;3.30;;
2434;SDS011;1228;51.022;6.764;2023-09-19T09:12:14;8.75;;;4.15;;
2434;SDS011;1228;51.022;6.764;2023-09-19T09:14:42;9.10;;;5.63;;
2434;SDS011;1228;51.022;6.764;2023-09-19T09:17:10;6.03;;;3.92;;
2434;SDS011;1228;51.022;6.764;2023-09-19T09:19:37;5.43;;;3.40;;
2434;SDS011;1228;51.022;6.764;2023-09-19T09:22:09;8.23;;;6.32;;
2434;SDS011;1228;51.022;6.764;2023-09-19T09:24:36;4.97;;;3.05;;
2434;SDS011;1228;51.022;6.764;2023-09-19T09:27:04;7.63;;;2.90;;
2434;SDS011;1228;51.022;6.764;2023-09-19T09:29:45;4.63;;;3.00;;
2434;SDS011;1228;51.022;6.764;2023-09-19T09:32:20;5.43;;;3.58;;
2434;SDS011;1228;51.022;6.764;2023-09-19T09:34:49;5.45;;;3.00;;
2434;SDS011;1228;51.022;6.764;2023-09-19T09:37:16;7.70;;;3.50;;
2434;SDS011;1228;51.022;6.764;2023-09-19T09:39:50;5.82;;;3.28;;
2434;SDS011;1228;51.022;6.764;2023-09-19T09:42:28;6.53;;;3.58;;
2434;SDS011;1228;51.022;6.764;2023-09-19T09:45:16;6.63;;;3.15;;
2434;SDS011;1228;51.022;6.764;2023-09-19T09:47:47;7.45;;;3.38;;
2434;SDS011;1228;51.022;6.764;2023-09-19T09:50:35;5.43;;;3.35;;
2434;SDS011;1228;51.022;6.764;2023-09-19T09:53:22;8.20;;;3.38;;
2434;SDS011;1228;51.022;6.764;2023-09-19T09:56:06;13.68;;;4.68;;
2434;SDS011;1228;51.022;6.764;2023-09-19T09:58:37;27.02;;;5.05;;
2434;SDS011;1228;51.022;6.764;2023-09-19T10:01:14;6.18;;;3.50;;
2434;SDS011;1228;51.022;6.764;2023-09-19T10:03:40;6.93;;;3.15;;
2434;SDS011;1228;51.022;6.764;2023-09-19T10:06:13;9.13;;;3.70;;
2434;SDS011;1228;51.022;6.764;2023-09-19T10:11:35;5.55;;;3.20;;
2434;SDS011;1228;51.022;6.764;2023-09-19T10:14:09;6.60;;;3.63;;
2434;SDS011;1228;51.022;6.764;2023-09-19T10:16:36;6.75;;;3.83;;
2434;SDS011;1228;51.022;6.764;2023-09-19T10:19:10;8.95;;;3.40;;
2434;SDS011;1228;51.022;6.764;2023-09-19T10:22:11;9.43;;;3.55;;
2434;SDS011;1228;51.022;6.764;2023-09-19T10:24:45;5.78;;;3.17;;
2434;SDS011;1228;51.022;6.764;2023-09-19T10:27:12;7.05;;;3.33;;
2434;SDS011;1228;51.022;6.764;2023-09-19T10:29:42;9.40;;;3.67;;
2434;SDS011;1228;51.022;6.764;2023-09-19T10:32:12;6.25;;;3.40;;
2434;SDS011;1228;51.022;6.764;2023-09-19T10:34:44;6.88;;;2.90;;
2434;SDS011;1228;51.022;6.764;2023-09-19T10:37:12;12.68;;;3.47;;
2434;SDS011;1228;51.022;6.764;2023-09-19T10:39:38;8.88;;;2.67;;
2434;SDS011;1228;51.022;6.764;2023-09-19T10:42:06;4.72;;;3.20;;
2434;SDS011;1228;51.022;6.764;2023-09-19T10:44:33;5.32;;;2.80;;
2434;SDS011;1228;51.022;6.764;2023-09-19T10:47:08;4.55;;;2.90;;
2434;SDS011;1228;51.022;6.764;2023-09-19T10:49:35;3.95;;;2.65;;
2434;SDS011;1228;51.022;6.764;2023-09-19T10:52:08;8.10;;;3.92;;
2434;SDS011;1228;51.022;6.764;2023-09-19T10:54:38;5.95;;;3.25;;
2434;SDS011;1228;51.022;6.764;2023-09-19T10:57:09;7.05;;;3.88;;
2434;SDS011;1228;51.022;6.764;2023-09-19T10:59:35;7.05;;;3.70;;
2434;SDS011;1228;51.022;6.764;2023-09-19T11:02:15;7.20;;;3.83;;
2434;SDS011;1228;51.022;6.764;2023-09-19T11:04:42;5.55;;;3.03;;
2434;SDS011;1228;51.022;6.764;2023-09-19T11:07:14;4.68;;;3.05;;
2434;SDS011;1228;51.022;6.764;2023-09-19T11:09:44;7.03;;;5.38;;
2434;SDS011;1228;51.022;6.764;2023-09-19T11:15:02;6.35;;;3.47;;
2434;SDS011;1228;51.022;6.764;2023-09-19T11:17:37;5.28;;;3.13;;
2434;SDS011;1228;51.022;6.764;2023-09-19T11:33:19;7.43;;;3.47;;
2434;SDS011;1228;51.022;6.764;2023-09-19T11:43:49;5.07;;;3.08;;
2434;SDS011;1228;51.022;6.764;2023-09-19T11:46:19;6.18;;;3.30;;
2434;SDS011;1228;51.022;6.764;2023-09-19T11:48:49;8.38;;;3.63;;
2434;SDS011;1228;51.022;6.764;2023-09-19T11:51:16;4.25;;;2.92;;
2434;SDS011;1228;51.022;6.764;2023-09-19T11:53:51;6.35;;;2.60;;
2434;SDS011;1228;51.022;6.764;2023-09-19T11:56:19;6.38;;;2.75;;
2434;SDS011;1228;51.022;6.764;2023-09-19T11:58:48;5.78;;;3.40;;
2434;SDS011;1228;51.022;6.764;2023-09-19T12:03:52;8.32;;;3.47;;
2434;SDS011;1228;51.022;6.764;2023-09-19T12:06:19;4.97;;;3.80;;
2434;SDS011;1228;51.022;6.764;2023-09-19T12:08:47;5.95;;;3.20;;
2434;SDS011;1228;51.022;6.764;2023-09-19T12:11:14;3.85;;;2.45;;
2434;SDS011;1228;51.022;6.764;2023-09-19T12:13:41;4.88;;;2.90;;
2434;SDS011;1228;51.022;6.764;2023-09-19T12:16:15;4.15;;;3.13;;
2434;SDS011;1228;51.022;6.764;2023-09-19T12:18:45;7.90;;;3.03;;
2434;SDS011;1228;51.022;6.764;2023-09-19T12:21:29;5.88;;;2.70;;
2434;SDS011;1228;51.022;6.764;2023-09-19T12:26:37;6.20;;;2.85;;
2434;SDS011;1228;51.022;6.764;2023-09-19T12:29:09;4.63;;;2.55;;
2434;SDS011;1228;51.022;6.764;2023-09-19T12:31:55;5.72;;;2.75;;
2434;SDS011;1228;51.022;6.764;2023-09-19T12:34:28;8.27;;;3.67;;
2434;SDS011;1228;51.022;6.764;2023-09-19T12:39:48;8.27;;;3.10;;
2434;SDS011;1228;51.022;6.764;2023-09-19T12:42:17;8.13;;;3.30;;
2434;SDS011;1228;51.022;6.764;2023-09-19T12:44:44;4.13;;;2.80;;
2434;SDS011;1228;51.022;6.764;2023-09-19T12:47:20;5.38;;;2.60;;
2434;SDS011;1228;51.022;6.764;2023-09-19T12:52:44;5.03;;;3.22;;
2434;SDS011;1228;51.022;6.764;2023-09-19T12:55:19;7.88;;;3.15;;
2434;SDS011;1228;51.022;6.764;2023-09-19T13:00:41;3.92;;;2.60;;
2434;SDS011;1228;51.022;6.764;2023-09-19T13:03:11;3.70;;;2.30;;
2434;SDS011;1228;51.022;6.764;2023-09-19T13:08:35;7.50;;;2.80;;
2434;SDS011;1228;51.022;6.764;2023-09-19T13:11:13;6.20;;;3.50;;
2434;SDS011;1228;51.022;6.764;2023-09-19T13:13:44;4.82;;;2.83;;
2434;SDS011;1228;51.022;6.764;2023-09-19T13:16:18;6.22;;;3.40;;
2434;SDS011;1228;51.022;6.764;2023-09-19T13:21:16;3.47;;;2.35;;
2434;SDS011;1228;51.022;6.764;2023-09-19T13:23:54;2.95;;;2.60;;
2434;SDS011;1228;51.022;6.764;2023-09-19T13:26:24;3.03;;;2.72;;
2434;SDS011;1228;51.022;6.764;2023-09-19T13:28:50;5.28;;;2.50;;
2434;SDS011;1228;51.022;6.764;2023-09-19T13:31:16;3.58;;;2.35;;
2434;SDS011;1228;51.022;6.764;2023-09-19T13:33:43;6.45;;;2.38;;
2434;SDS011;1228;51.022;6.764;2023-09-19T13:36:10;3.80;;;2.58;;
2434;SDS011;1228;51.022;6.764;2023-09-19T13:38:37;3.17;;;2.40;;
2434;SDS011;1228;51.022;6.764;2023-09-19T13:41:02;9.98;;;2.45;;
2434;SDS011;1228;51.022;6.764;2023-09-19T13:43:28;7.82;;;2.33;;
2434;SDS011;1228;51.022;6.764;2023-09-19T13:45:54;8.20;;;2.80;;
2434;SDS011;1228;51.022;6.764;2023-09-19T13:48:19;3.20;;;2.75;;
2434;SDS011;1228;51.022;6.764;2023-09-19T13:50:47;4.30;;;4.00;;
2434;SDS011;1228;51.022;6.764;2023-09-19T13:53:14;4.47;;;4.07;;
2434;SDS011;1228;51.022;6.764;2023-09-19T13:55:39;3.33;;;3.03;;
2434;SDS011;1228;51.022;6.764;2023-09-19T13:58:06;4.38;;;3.22;;
2434;SDS011;1228;51.022;6.764;2023-09-19T14:00:32;6.68;;;3.70;;
2434;SDS011;1228;51.022;6.764;2023-09-19T14:03:00;2.80;;;2.50;;
2434;SDS011;1228;51.022;6.764;2023-09-19T14:05:26;2.80;;;2.60;;
2434;SDS011;1228;51.022;6.764;2023-09-19T14:07:53;2.08;;;1.88;;
2434;SDS011;1228;51.022;6.764;2023-09-19T14:10:22;4.53;;;2.17;;
2434;SDS011;1228;51.022;6.764;2023-09-19T14:12:48;5.28;;;2.78;;
2434;SDS011;1228;51.022;6.764;2023-09-19T14:15:13;3.80;;;3.50;;
2434;SDS011;1228;51.022;6.764;2023-09-19T14:17:39;3.40;;;3.05;;
2434;SDS011;1228;51.022;6.764;2023-09-19T14:20:10;2.50;;;2.30;;
2434;SDS011;1228;51.022;6.764;2023-09-19T14:22:36;2.83;;;2.60;;
2434;SDS011;1228;51.022;6.764;2023-09-19T14:25:02;5.30;;;3.08;;
2434;SDS011;1228;51.022;6.764;2023-09-19T14:27:29;3.20;;;2.35;;
2434;SDS011;1228;51.022;6.764;2023-09-19T14:29:55;7.97;;;3.53;;
2434;SDS011;1228;51.022;6.764;2023-09-19T14:32:22;3.28;;;2.38;;
2434;SDS011;1228;51.022;6.764;2023-09-19T14:34:48;3.30;;;2.20;;
2434;SDS011;1228;51.022;6.764;2023-09-19T14:37:14;5.22;;;2.78;;
2434;SDS011;1228;51.022;6.764;2023-09-19T14:39:41;4.07;;;2.40;;
2434;SDS011;1228;51.022;6.764;2023-09-19T14:42:09;5.50;;;2.88;;
2434;SDS011;1228;51.022;6.764;2023-09-19T14:44:36;4.03;;;3.00;;
2434;SDS011;1228;51.022;6.764;2023-09-19T14:47:02;2.72;;;2.53;;
2434;SDS011;1228;51.022;6.764;2023-09-19T14:49:35;3.30;;;2.10;;
2434;SDS011;1228;51.022;6.764;2023-09-19T14:52:05;3.50;;;2.00;;
2434;SDS011;1228;51.022;6.764;2023-09-19T14:54:34;6.90;;;2.42;;
2434;SDS011;1228;51.022;6.764;2023-09-19T14:57:00;2.97;;;2.78;;
2434;SDS011;1228;51.022;6.764;2023-09-19T14:59:33;5.22;;;2.78;;
2434;SDS011;1228;51.022;6.764;2023-09-19T15:02:05;3.00;;;2.03;;
2434;SDS011;1228;51.022;6.764;2023-09-19T15:04:31;3.17;;;2.30;;
2434;SDS011;1228;51.022;6.764;2023-09-19T15:06:58;4.63;;;2.72;;
2434;SDS011;1228;51.022;6.764;2023-09-19T15:09:24;5.70;;;2.13;;
2434;SDS011;1228;51.022;6.764;2023-09-19T15:11:54;3.17;;;2.92;;
2434;SDS011;1228;51.022;6.764;2023-09-19T15:14:20;9.43;;;2.85;;
2434;SDS011;1228;51.022;6.764;2023-09-19T15:16:47;3.53;;;2.47;;
2434;SDS011;1228;51.022;6.764;2023-09-19T15:19:13;3.97;;;2.33;;
2434;SDS011;1228;51.022;6.764;2023-09-19T15:21:40;4.95;;;4.22;;
2434;SDS011;1228;51.022;6.764;2023-09-19T15:24:06;3.63;;;3.33;;
2434;SDS011;1228;51.022;6.764;2023-09-19T15:26:35;6.07;;;5.57;;
2434;SDS011;1228;51.022;6.764;2023-09-19T15:29:05;5.47;;;5.07;;
2434;SDS011;1228;51.022;6.764;2023-09-19T15:31:31;5.68;;;4.25;;
2434;SDS011;1228;51.022;6.764;2023-09-19T15:33:57;4.97;;;4.57;;
2434;SDS011;1228;51.022;6.764;2023-09-19T15:36:22;5.22;;;3.47;;
2434;SDS011;1228;51.022;6.764;2023-09-19T15:41:27;5.80;;;4.30;;
2434;SDS011;1228;51.022;6.764;2023-09-19T15:43:57;4.32;;;4.03;;
2434;SDS011;1228;51.022;6.764;2023-09-19T15:46:26;4.45;;;3.40;;
2434;SDS011;1228;51.022;6.764;2023-09-19T15:48:56;3.25;;;1.95;;
2434;SDS011;1228;51.022;6.764;2023-09-19T15:51:22;3.85;;;3.15;;
2434;SDS011;1228;51.022;6.764;2023-09-19T15:53:49;4.05;;;3.55;;
2434;SDS011;1228;51.022;6.764;2023-09-19T15:56:16;2.95;;;2.63;;
2434;SDS011;1228;51.022;6.764;2023-09-19T15:58:46;3.38;;;2.92;;
2434;SDS011;1228;51.022;6.764;2023-09-19T16:01:12;5.72;;;2.60;;
2434;SDS011;1228;51.022;6.764;2023-09-19T16:03:44;2.72;;;2.53;;
2434;SDS011;1228;51.022;6.764;2023-09-19T16:06:19;7.18;;;3.58;;
2434;SDS011;1228;51.022;6.764;2023-09-19T16:08:56;4.28;;;3.33;;
2434;SDS011;1228;51.022;6.764;2023-09-19T16:11:23;5.07;;;2.63;;
2434;SDS011;1228;51.022;6.764;2023-09-19T16:13:50;5.07;;;2.95;;
2434;SDS011;1228;51.022;6.764;2023-09-19T16:16:18;2.75;;;2.05;;
2434;SDS011;1228;51.022;6.764;2023-09-19T16:18:50;3.65;;;2.33;;
2434;SDS011;1228;51.022;6.764;2023-09-19T16:21:26;3.03;;;2.25;;
2434;SDS011;1228;51.022;6.764;2023-09-19T16:23:52;3.55;;;2.97;;
2434;SDS011;1228;51.022;6.764;2023-09-19T16:26:19;5.35;;;3.08;;